Terminal Aerodrome Forecast
Issued by NWS Cleveland, OH

Home | Current Version | Previous Version | Text Only | Print | Product List | Glossary On
Versions: 1 2 3 4 5 6 7 8 9 10 11 12 13
000
FTUS41 KCLE 240539
TAFTOL
TAF
KTOL 240539Z 2406/2506 24013G20KT P6SM SCT015 OVC050
      TEMPO 2406/2408 5SM -SHRA OVC015
     FM241100 22012KT P6SM BKN015 OVC040
      TEMPO 2411/2415 5SM -SHRA OVC015
     FM241500 22015G25KT P6SM VCSH BKN025
     FM241700 22015G25KT P6SM BKN035
     FM250100 24012KT 6SM -SHRA OVC015=

USA.gov is the U.S. government's official web portal to all federal, state and local government web resources and services.